createdAt,value
2017-07-14T00:01:48.537Z,14.00
2017-07-14T00:04:18.972Z,14.00
2017-07-14T00:06:49.426Z,13.90
2017-07-14T00:09:19.128Z,13.90
2017-07-14T00:11:48.815Z,13.80
2017-07-14T00:14:19.252Z,13.70
2017-07-14T00:16:48.927Z,13.70
2017-07-14T00:19:18.591Z,13.70
2017-07-14T00:21:48.290Z,13.70
2017-07-14T00:24:17.939Z,13.70
2017-07-14T00:26:47.667Z,13.70
2017-07-14T00:29:17.906Z,13.80
2017-07-14T00:31:48.357Z,13.90
2017-07-14T00:34:18.010Z,13.80
2017-07-14T00:36:47.715Z,13.90
2017-07-14T00:39:17.415Z,13.90
2017-07-14T00:41:47.075Z,13.80
2017-07-14T00:44:16.761Z,13.80
2017-07-14T00:46:46.433Z,13.70
2017-07-14T00:49:16.134Z,13.70
2017-07-14T00:51:45.608Z,13.70
2017-07-14T00:54:16.051Z,13.50
2017-07-14T00:56:46.465Z,13.60
2017-07-14T00:59:16.906Z,13.60
2017-07-14T01:01:46.576Z,13.60
2017-07-14T01:04:16.284Z,13.60
2017-07-14T01:06:45.942Z,13.60
2017-07-14T01:09:15.619Z,13.60
2017-07-14T01:11:46.055Z,13.60
2017-07-14T01:14:15.728Z,13.60
2017-07-14T01:16:45.193Z,13.50
2017-07-14T01:19:14.866Z,13.50
2017-07-14T01:21:45.322Z,13.50
2017-07-14T01:24:15.011Z,13.50
2017-07-14T01:26:45.449Z,13.50
2017-07-14T01:29:15.132Z,13.50
2017-07-14T01:31:45.577Z,13.40
2017-07-14T01:34:16.048Z,13.30
2017-07-14T01:36:45.729Z,13.30
2017-07-14T01:39:14.721Z,13.30
2017-07-14T01:41:43.497Z,13.20
2017-07-14T01:44:17.175Z,13.30
2017-07-14T01:46:46.748Z,13.30
2017-07-14T01:49:16.055Z,13.20
2017-07-14T01:51:44.850Z,13.30
2017-07-14T01:54:13.960Z,13.30
2017-07-14T01:56:42.970Z,13.40
2017-07-14T01:59:11.717Z,13.30
2017-07-14T02:01:41.063Z,13.30
2017-07-14T02:04:10.377Z,13.40
2017-07-14T02:06:39.175Z,13.40
2017-07-14T02:09:07.999Z,13.40
2017-07-14T02:11:36.804Z,13.40
2017-07-14T02:14:05.586Z,13.40
2017-07-14T02:16:36.751Z,13.50
2017-07-14T02:19:05.876Z,13.40
2017-07-14T02:21:34.842Z,13.40
2017-07-14T02:24:03.630Z,13.40
2017-07-14T02:26:32.416Z,13.40
2017-07-14T02:29:01.526Z,13.30
2017-07-14T02:31:30.680Z,13.30
2017-07-14T02:33:59.466Z,13.20
2017-07-14T02:36:28.603Z,13.20
2017-07-14T02:38:57.619Z,13.10
2017-07-14T02:41:26.393Z,13.10
2017-07-14T02:43:55.269Z,13.10
2017-07-14T02:46:24.033Z,13.20
2017-07-14T02:48:52.817Z,13.20
2017-07-14T02:51:22.130Z,13.20
2017-07-14T02:53:50.920Z,13.20
2017-07-14T02:56:20.252Z,13.20
2017-07-14T02:58:49.394Z,13.20
2017-07-14T03:01:18.507Z,13.30
2017-07-14T03:03:47.491Z,13.30
2017-07-14T03:06:16.634Z,13.40
2017-07-14T03:08:45.437Z,13.30
2017-07-14T03:11:14.218Z,13.40
2017-07-14T03:13:43.008Z,13.30
2017-07-14T03:16:12.507Z,13.30
2017-07-14T03:18:41.841Z,13.40
2017-07-14T03:21:10.985Z,13.50
2017-07-14T03:23:39.975Z,13.40
2017-07-14T03:26:08.797Z,13.40
2017-07-14T03:28:37.784Z,13.50
2017-07-14T03:31:07.456Z,13.70
2017-07-14T03:33:37.012Z,13.90
2017-07-14T03:36:05.832Z,13.90
2017-07-14T03:38:34.620Z,14.00
2017-07-14T03:41:03.745Z,14.10
2017-07-14T03:43:32.881Z,14.10
2017-07-14T03:46:02.445Z,14.30
2017-07-14T03:48:31.465Z,14.30
2017-07-14T03:51:00.254Z,14.30
2017-07-14T03:53:29.073Z,14.30
2017-07-14T03:55:58.847Z,14.20
2017-07-14T03:58:27.665Z,14.20
2017-07-14T04:00:57.228Z,14.30
2017-07-14T04:03:26.229Z,14.30
2017-07-14T04:05:55.910Z,14.40
2017-07-14T04:08:25.588Z,14.50
2017-07-14T04:10:55.249Z,14.60
2017-07-14T04:13:24.941Z,14.60
2017-07-14T04:15:54.605Z,14.70
2017-07-14T04:18:24.112Z,14.70
2017-07-14T04:20:53.773Z,14.70
2017-07-14T04:23:23.474Z,14.70
2017-07-14T04:25:53.139Z,14.60
2017-07-14T04:28:23.600Z,14.60
2017-07-14T04:30:53.275Z,14.60
2017-07-14T04:33:23.731Z,14.70
2017-07-14T04:35:53.429Z,14.70
2017-07-14T04:38:23.113Z,14.80
2017-07-14T04:40:53.606Z,15.10
2017-07-14T04:43:23.300Z,15.10
2017-07-14T04:45:52.986Z,15.40
2017-07-14T04:48:22.667Z,15.60
2017-07-14T04:50:53.128Z,15.70
2017-07-14T04:53:23.578Z,15.80
2017-07-14T04:55:53.234Z,15.80
2017-07-14T04:58:23.673Z,15.90
2017-07-14T05:00:54.131Z,15.90
2017-07-14T05:03:23.800Z,15.90
2017-07-14T05:05:53.507Z,16.00
2017-07-14T05:08:23.169Z,16.00
2017-07-14T05:10:52.854Z,15.90
2017-07-14T05:13:22.532Z,15.80
2017-07-14T05:15:52.223Z,15.90
2017-07-14T05:18:21.984Z,16.10
2017-07-14T05:20:51.668Z,16.10
2017-07-14T05:23:21.350Z,16.20
2017-07-14T05:25:51.013Z,16.20
2017-07-14T05:28:20.695Z,16.40
2017-07-14T05:30:50.355Z,16.40
2017-07-14T05:33:20.071Z,16.40
2017-07-14T05:35:50.502Z,16.40
2017-07-14T05:38:20.195Z,16.40
2017-07-14T05:40:50.648Z,16.30
2017-07-14T05:43:20.335Z,16.30
2017-07-14T05:45:50.773Z,16.50
2017-07-14T05:48:20.248Z,16.50
2017-07-14T05:50:49.917Z,16.50
2017-07-14T05:53:19.609Z,16.60
2017-07-14T05:55:48.994Z,16.70
2017-07-14T05:58:19.447Z,16.80
2017-07-14T06:00:48.852Z,16.80
2017-07-14T06:03:18.297Z,17.00
2017-07-14T06:05:48.450Z,17.30
2017-07-14T06:08:17.880Z,17.30
2017-07-14T06:10:47.305Z,17.40
2017-07-14T06:13:16.708Z,17.80
2017-07-14T06:15:46.129Z,18.10
2017-07-14T06:18:16.297Z,18.90
2017-07-14T06:20:45.708Z,18.80
2017-07-14T06:23:15.176Z,18.80
2017-07-14T06:25:44.720Z,18.60
2017-07-14T06:28:14.122Z,18.60
2017-07-14T06:30:43.541Z,18.50
2017-07-14T06:33:13.718Z,18.30
2017-07-14T06:35:42.940Z,18.30
2017-07-14T06:38:12.349Z,18.20
2017-07-14T06:40:41.896Z,18.30
2017-07-14T06:43:11.297Z,18.50
2017-07-14T06:45:40.725Z,18.90
2017-07-14T06:48:10.144Z,18.90
2017-07-14T06:50:39.576Z,19.10
2017-07-14T06:53:09.016Z,19.50
2017-07-14T06:55:38.430Z,19.60
2017-07-14T06:58:07.861Z,19.20
2017-07-14T07:00:37.275Z,18.90
2017-07-14T07:03:06.679Z,19.10
2017-07-14T07:05:36.076Z,20.00
2017-07-14T07:08:05.494Z,21.40
2017-07-14T07:10:34.907Z,23.00
2017-07-14T07:13:05.088Z,24.60
2017-07-14T07:15:34.475Z,24.60
2017-07-14T07:18:03.894Z,25.20
2017-07-14T07:20:33.291Z,25.10
2017-07-14T07:23:02.719Z,25.40
2017-07-14T07:25:32.140Z,25.30
2017-07-14T07:28:02.325Z,24.60
2017-07-14T07:30:31.733Z,24.50
2017-07-14T07:33:01.138Z,24.10
2017-07-14T07:35:30.534Z,24.60
2017-07-14T07:37:59.955Z,24.50
2017-07-14T07:40:29.433Z,24.70
2017-07-14T07:42:58.828Z,25.00
2017-07-14T07:45:29.027Z,25.30
2017-07-14T07:48:15.052Z,25.30
2017-07-14T07:50:44.480Z,25.40
2017-07-14T07:53:13.920Z,26.20
2017-07-14T07:55:43.335Z,27.20
2017-07-14T07:58:12.735Z,26.10
2017-07-14T08:00:42.152Z,25.80
2017-07-14T08:03:17.005Z,25.50
2017-07-14T08:05:46.426Z,25.30
2017-07-14T08:08:15.827Z,26.30
2017-07-14T08:10:45.253Z,26.70
2017-07-14T08:13:14.636Z,26.00
2017-07-14T08:15:44.064Z,25.50
2017-07-14T08:18:13.457Z,24.80
2017-07-14T08:20:42.874Z,24.90
2017-07-14T08:23:12.275Z,25.60
2017-07-14T08:25:41.675Z,25.30
2017-07-14T08:28:11.062Z,24.90
2017-07-14T08:30:40.446Z,23.80
2017-07-14T08:33:09.874Z,23.00
2017-07-14T08:35:39.289Z,22.40
2017-07-14T08:38:08.693Z,22.10
2017-07-14T08:40:38.091Z,21.40
2017-07-14T08:43:07.308Z,21.10
2017-07-14T08:45:36.725Z,20.70
2017-07-14T08:48:06.132Z,20.30
2017-07-14T08:50:36.346Z,20.00
2017-07-14T08:53:05.764Z,20.00
2017-07-14T08:55:35.945Z,20.10
2017-07-14T08:58:05.354Z,20.10
2017-07-14T09:00:34.880Z,20.20
2017-07-14T09:03:04.098Z,20.30
2017-07-14T09:05:34.264Z,21.70
2017-07-14T09:08:03.687Z,21.60
2017-07-14T09:10:33.122Z,22.30
2017-07-14T09:13:03.312Z,22.70
2017-07-14T09:15:32.713Z,22.70
2017-07-14T09:18:02.156Z,23.00
2017-07-14T09:20:32.313Z,22.60
2017-07-14T09:23:01.710Z,22.60
2017-07-14T09:25:31.900Z,22.20
2017-07-14T09:28:01.296Z,22.20
2017-07-14T09:30:31.475Z,22.40
2017-07-14T09:33:00.875Z,22.30
2017-07-14T09:35:30.305Z,22.80
2017-07-14T09:37:59.707Z,23.30
2017-07-14T09:40:29.091Z,23.30
2017-07-14T09:42:58.513Z,24.00
2017-07-14T09:45:27.905Z,24.50
2017-07-14T09:47:57.147Z,23.80
2017-07-14T09:50:27.105Z,22.10
2017-07-14T09:52:56.523Z,22.10
2017-07-14T09:55:25.908Z,21.60
2017-07-14T09:57:55.323Z,21.20
2017-07-14T10:00:24.710Z,20.80
2017-07-14T10:02:53.945Z,20.40
2017-07-14T10:05:23.627Z,20.20
2017-07-14T10:07:53.075Z,20.20
2017-07-14T10:10:22.507Z,20.20
2017-07-14T10:12:51.918Z,20.40
2017-07-14T10:15:21.346Z,20.50
2017-07-14T10:17:50.761Z,20.40
2017-07-14T10:20:20.171Z,20.50
2017-07-14T10:22:50.339Z,20.80
2017-07-14T10:25:19.782Z,20.70
2017-07-14T10:27:49.203Z,20.60
2017-07-14T10:30:19.531Z,21.00
2017-07-14T10:32:48.943Z,21.00
2017-07-14T10:35:18.351Z,21.30
2017-07-14T10:37:47.771Z,21.40
2017-07-14T10:40:17.208Z,21.60
2017-07-14T10:42:46.646Z,22.20
2017-07-14T10:45:16.790Z,23.80
2017-07-14T10:47:46.208Z,23.80
2017-07-14T10:50:15.635Z,23.90
2017-07-14T10:52:45.040Z,23.70
2017-07-14T10:55:14.452Z,23.40
2017-07-14T10:57:43.861Z,23.20
2017-07-14T11:00:13.274Z,22.70
2017-07-14T11:02:43.452Z,22.50
2017-07-14T11:05:12.867Z,22.50
2017-07-14T11:07:42.273Z,22.40
2017-07-14T11:10:11.993Z,22.40
2017-07-14T11:12:41.381Z,23.20
2017-07-14T11:15:10.591Z,24.00
2017-07-14T11:17:40.060Z,24.30
2017-07-14T11:20:09.467Z,24.30
2017-07-14T11:22:38.867Z,24.00
2017-07-14T11:25:08.292Z,24.40
2017-07-14T11:27:37.696Z,24.70
2017-07-14T11:30:07.162Z,24.70
2017-07-14T11:32:36.587Z,24.50
2017-07-14T11:35:05.970Z,24.30
2017-07-14T11:37:35.385Z,24.00
2017-07-14T11:40:04.775Z,24.40
2017-07-14T11:42:34.177Z,24.20
2017-07-14T11:45:03.600Z,24.40
2017-07-14T11:47:33.020Z,24.60
2017-07-14T11:50:02.429Z,24.30
2017-07-14T11:52:31.839Z,24.40
2017-07-14T11:55:01.596Z,25.70
2017-07-14T11:57:31.773Z,27.00
2017-07-14T12:00:01.175Z,27.00
2017-07-14T12:02:30.412Z,27.90
2017-07-14T12:05:00.591Z,28.20
2017-07-14T12:07:30.015Z,28.20
2017-07-14T12:09:59.428Z,28.10
2017-07-14T12:12:28.848Z,27.70
2017-07-14T12:14:58.239Z,28.40
2017-07-14T12:17:27.684Z,28.90
2017-07-14T12:19:57.091Z,29.50
2017-07-14T12:22:26.500Z,29.20
2017-07-14T12:24:55.915Z,29.10
2017-07-14T12:27:26.070Z,28.70
2017-07-14T12:29:55.507Z,28.70
2017-07-14T12:32:24.937Z,29.00
2017-07-14T12:34:54.544Z,29.10
2017-07-14T12:37:24.097Z,29.60
2017-07-14T12:39:53.533Z,29.20
2017-07-14T12:42:22.947Z,28.70
2017-07-14T12:44:52.371Z,29.30
2017-07-14T12:47:22.545Z,31.60
2017-07-14T12:49:51.985Z,31.50
2017-07-14T12:52:21.388Z,31.30
2017-07-14T12:54:50.800Z,30.90
2017-07-14T12:57:20.996Z,28.90
2017-07-14T12:59:50.421Z,28.80
2017-07-14T13:02:19.804Z,28.60
2017-07-14T13:04:49.212Z,29.20
2017-07-14T13:07:18.637Z,28.50
2017-07-14T13:09:48.047Z,27.60
2017-07-14T13:12:18.248Z,26.10
2017-07-14T13:14:47.642Z,26.00
2017-07-14T13:17:17.062Z,26.70
2017-07-14T13:19:46.468Z,27.70
2017-07-14T13:22:15.884Z,28.90
2017-07-14T13:24:46.034Z,29.70
2017-07-14T13:27:15.458Z,29.70
2017-07-14T13:29:44.851Z,28.40
2017-07-14T13:32:14.270Z,27.70
2017-07-14T13:34:43.663Z,26.70
2017-07-14T13:37:12.878Z,27.10
2017-07-14T13:39:42.304Z,28.00
2017-07-14T13:42:11.709Z,28.60
2017-07-14T13:44:41.123Z,28.40
2017-07-14T13:47:10.565Z,27.80
2017-07-14T13:49:39.978Z,27.50
2017-07-14T13:52:09.395Z,27.10
2017-07-14T13:54:38.814Z,26.50
2017-07-14T13:57:08.218Z,26.30
2017-07-14T13:59:37.611Z,25.80
2017-07-14T14:02:07.024Z,25.50
2017-07-14T14:04:36.858Z,25.10
2017-07-14T14:07:06.805Z,25.30
2017-07-14T14:09:36.238Z,25.50
2017-07-14T14:12:05.646Z,26.70
2017-07-14T14:14:35.064Z,28.20
2017-07-14T14:17:05.219Z,28.30
2017-07-14T14:19:34.658Z,28.30
2017-07-14T14:22:04.430Z,28.60
2017-07-14T14:24:33.844Z,28.60
2017-07-14T14:27:03.243Z,27.70
2017-07-14T14:29:32.673Z,27.00
2017-07-14T14:32:02.075Z,27.10
2017-07-14T14:34:31.479Z,26.60
2017-07-14T14:37:00.888Z,26.50
2017-07-14T14:39:30.319Z,26.40
2017-07-14T14:42:00.477Z,25.20
2017-07-14T14:44:29.543Z,25.20
2017-07-14T14:46:58.950Z,24.80
2017-07-14T14:49:28.357Z,24.70
2017-07-14T14:51:57.772Z,24.30
2017-07-14T14:54:27.199Z,23.90
2017-07-14T14:56:56.586Z,23.60
2017-07-14T14:59:25.991Z,23.40
2017-07-14T15:01:55.446Z,23.50
2017-07-14T15:04:25.620Z,23.30
2017-07-14T15:06:55.032Z,23.30
2017-07-14T15:09:24.223Z,23.40
2017-07-14T15:11:53.633Z,23.60
2017-07-14T15:14:23.033Z,23.50
2017-07-14T15:16:52.450Z,23.80
2017-07-14T15:19:21.846Z,23.80
2017-07-14T15:21:51.074Z,23.80
2017-07-14T15:24:20.458Z,23.70
2017-07-14T15:26:50.082Z,23.90
2017-07-14T15:29:19.492Z,23.80
2017-07-14T15:31:49.078Z,23.80
2017-07-14T15:34:18.475Z,23.70
2017-07-14T15:36:47.901Z,23.80
2017-07-14T15:39:17.305Z,23.70
2017-07-14T15:41:46.731Z,23.60
2017-07-14T15:44:16.882Z,23.40
2017-07-14T15:46:46.273Z,23.30
2017-07-14T15:49:15.718Z,23.20
2017-07-14T15:51:45.131Z,23.00
2017-07-14T15:54:14.528Z,23.10
2017-07-14T15:56:43.950Z,23.20
2017-07-14T15:59:13.355Z,23.40
2017-07-14T16:01:42.792Z,23.50
2017-07-14T16:04:12.188Z,23.60
2017-07-14T16:06:42.394Z,23.70
2017-07-14T16:09:11.796Z,23.70
2017-07-14T16:11:41.179Z,23.50
2017-07-14T16:14:10.612Z,23.30
2017-07-14T16:16:40.762Z,23.40
2017-07-14T16:19:10.187Z,23.40
2017-07-14T16:21:39.599Z,23.30
2017-07-14T16:24:09.017Z,23.20
2017-07-14T16:26:38.433Z,23.20
2017-07-14T16:29:07.847Z,23.10
2017-07-14T16:31:38.047Z,23.00
2017-07-14T16:34:07.477Z,23.00
2017-07-14T16:36:37.637Z,23.20
2017-07-14T16:39:08.072Z,23.20
2017-07-14T16:41:37.473Z,23.30
2017-07-14T16:44:06.957Z,23.20
2017-07-14T16:46:36.361Z,23.00
2017-07-14T16:49:05.764Z,22.90
2017-07-14T16:51:35.183Z,22.90
2017-07-14T16:54:04.591Z,22.90
2017-07-14T16:56:34.011Z,22.70
2017-07-14T16:59:03.436Z,22.80
2017-07-14T17:01:32.847Z,22.80
2017-07-14T17:04:03.022Z,22.70
2017-07-14T17:06:32.433Z,22.70
2017-07-14T17:09:01.845Z,22.60
2017-07-14T17:11:31.083Z,22.60
2017-07-14T17:14:01.239Z,22.50
2017-07-14T17:16:30.658Z,22.50
2017-07-14T17:19:00.076Z,22.50
2017-07-14T17:21:29.501Z,22.60
2017-07-14T17:23:58.883Z,22.60
2017-07-14T17:26:28.310Z,22.50
2017-07-14T17:28:58.469Z,22.60
2017-07-14T17:31:27.901Z,22.60
2017-07-14T17:33:57.302Z,22.50
2017-07-14T17:36:26.707Z,22.40
2017-07-14T17:38:56.114Z,22.30
2017-07-14T17:41:25.559Z,22.20
2017-07-14T17:43:55.743Z,22.10
2017-07-14T17:46:25.176Z,22.10
2017-07-14T17:48:55.361Z,22.10
2017-07-14T17:51:24.760Z,22.10
2017-07-14T17:53:54.170Z,22.00
2017-07-14T17:56:23.569Z,21.90
2017-07-14T17:58:52.987Z,21.80
2017-07-14T18:01:22.390Z,21.80
2017-07-14T18:03:51.807Z,21.70
2017-07-14T18:06:21.216Z,21.70
2017-07-14T18:08:51.546Z,21.60
2017-07-14T18:11:21.693Z,21.50
2017-07-14T18:13:51.117Z,21.50
2017-07-14T18:16:20.519Z,21.60
2017-07-14T18:18:49.917Z,21.50
2017-07-14T18:21:19.342Z,21.50
2017-07-14T18:23:48.729Z,21.40
2017-07-14T18:26:18.169Z,21.30
2017-07-14T18:28:47.590Z,21.20
2017-07-14T18:31:17.842Z,21.00
2017-07-14T18:33:47.339Z,21.00
2017-07-14T18:36:16.735Z,21.00
2017-07-14T18:38:46.157Z,20.80
2017-07-14T18:41:15.588Z,20.80
2017-07-14T18:43:44.978Z,20.70
2017-07-14T18:46:14.397Z,20.70
2017-07-14T18:48:43.791Z,20.60
2017-07-14T18:51:13.217Z,20.50
2017-07-14T18:53:42.621Z,20.50
2017-07-14T18:56:12.039Z,20.40
2017-07-14T18:58:42.212Z,20.40
2017-07-14T19:01:11.627Z,20.30
2017-07-14T19:03:41.029Z,20.30
2017-07-14T19:06:10.439Z,20.30
2017-07-14T19:08:39.856Z,20.30
2017-07-14T19:11:10.037Z,20.20
2017-07-14T19:13:39.482Z,20.10
2017-07-14T19:16:08.885Z,20.20
2017-07-14T19:18:38.338Z,20.10
2017-07-14T19:21:07.738Z,20.10
2017-07-14T19:23:37.163Z,20.10
2017-07-14T19:26:06.567Z,20.20
2017-07-14T19:28:35.993Z,20.20
2017-07-14T19:31:05.404Z,20.20
2017-07-14T19:33:34.817Z,20.10
2017-07-14T19:36:04.995Z,19.80
2017-07-14T19:38:34.432Z,19.80
2017-07-14T19:41:03.862Z,19.80
2017-07-14T19:43:33.315Z,19.80
2017-07-14T19:46:02.717Z,19.70
2017-07-14T19:48:32.120Z,19.70
2017-07-14T19:51:01.548Z,19.50
2017-07-14T19:53:30.952Z,19.40
2017-07-14T19:56:00.372Z,19.30
2017-07-14T19:58:30.526Z,19.20
2017-07-14T20:00:59.958Z,19.20
2017-07-14T20:03:29.347Z,19.10
2017-07-14T20:05:58.768Z,19.00
2017-07-14T20:08:28.160Z,18.90
2017-07-14T20:10:57.591Z,18.90
2017-07-14T20:13:26.984Z,18.80
2017-07-14T20:15:56.417Z,18.70
2017-07-14T20:18:26.575Z,18.50
2017-07-14T20:20:56.004Z,18.50
2017-07-14T20:23:25.432Z,18.40
2017-07-14T20:25:54.861Z,18.30
2017-07-14T20:28:25.015Z,18.30
2017-07-14T20:30:54.431Z,18.30
2017-07-14T20:33:23.842Z,18.30
2017-07-14T20:35:53.046Z,18.30
2017-07-14T20:38:22.486Z,18.30
2017-07-14T20:40:52.670Z,18.20
2017-07-14T20:43:22.854Z,18.10
2017-07-14T20:45:52.268Z,18.10
2017-07-14T20:48:21.697Z,18.10
2017-07-14T20:50:51.851Z,18.00
2017-07-14T20:53:22.294Z,17.80
2017-07-14T20:55:51.698Z,17.80
2017-07-14T20:58:21.115Z,17.80
2017-07-14T21:00:50.568Z,17.70
2017-07-14T21:03:20.784Z,17.70
2017-07-14T21:05:50.934Z,17.70
2017-07-14T21:08:21.395Z,17.80
2017-07-14T21:10:50.818Z,17.80
2017-07-14T21:13:20.509Z,17.70
2017-07-14T21:15:50.188Z,17.70
2017-07-14T21:18:19.622Z,17.70
2017-07-14T21:20:49.045Z,17.80
2017-07-14T21:23:18.476Z,17.80
2017-07-14T21:25:48.636Z,17.80
2017-07-14T21:28:18.325Z,17.80
2017-07-14T21:30:48.770Z,17.80
2017-07-14T21:33:18.452Z,17.80
2017-07-14T21:35:47.892Z,17.80
2017-07-14T21:38:17.295Z,17.70
2017-07-14T21:40:46.773Z,17.80
2017-07-14T21:43:16.449Z,17.70
2017-07-14T21:45:46.644Z,17.70
2017-07-14T21:48:16.328Z,17.70
2017-07-14T21:50:46.794Z,17.70
2017-07-14T21:53:16.200Z,17.60
2017-07-14T21:55:45.939Z,17.60
2017-07-14T21:58:15.589Z,17.60
2017-07-14T22:00:45.339Z,17.50
2017-07-14T22:03:15.560Z,17.40
2017-07-14T22:05:45.293Z,17.40
2017-07-14T22:08:14.769Z,17.30
2017-07-14T22:10:44.438Z,17.20
2017-07-14T22:13:14.906Z,17.10
2017-07-14T22:15:44.567Z,17.10
2017-07-14T22:18:15.033Z,16.90
2017-07-14T22:20:44.716Z,16.90
2017-07-14T22:23:15.166Z,16.80
2017-07-14T22:25:44.826Z,16.80
2017-07-14T22:28:14.537Z,16.70
2017-07-14T22:30:44.205Z,16.60
2017-07-14T22:33:13.899Z,16.60
2017-07-14T22:35:43.551Z,16.60
2017-07-14T22:38:13.246Z,16.50
2017-07-14T22:40:42.921Z,16.50
2017-07-14T22:43:12.609Z,16.30
2017-07-14T22:45:43.042Z,16.30
2017-07-14T22:48:12.739Z,16.20
2017-07-14T22:50:42.407Z,16.20
2017-07-14T22:53:12.861Z,16.00
2017-07-14T22:55:42.539Z,16.00
2017-07-14T22:58:12.975Z,16.00
2017-07-14T23:00:42.667Z,16.00
2017-07-14T23:03:13.123Z,16.00
2017-07-14T23:05:42.626Z,16.00
2017-07-14T23:08:12.282Z,16.00
2017-07-14T23:10:41.960Z,15.90
2017-07-14T23:13:11.631Z,15.80
2017-07-14T23:15:41.336Z,15.70
2017-07-14T23:18:11.008Z,15.70
2017-07-14T23:20:40.705Z,15.60
2017-07-14T23:23:10.466Z,15.60
2017-07-14T23:25:40.161Z,15.50
2017-07-14T23:28:09.839Z,15.40
2017-07-14T23:30:39.792Z,15.40
2017-07-14T23:33:09.490Z,15.40
2017-07-14T23:35:39.277Z,15.40
2017-07-14T23:38:08.932Z,15.50
2017-07-14T23:40:38.636Z,15.50
2017-07-14T23:43:08.312Z,15.50
2017-07-14T23:45:38.032Z,15.40
2017-07-14T23:48:07.792Z,15.40
2017-07-14T23:50:38.265Z,15.30
2017-07-14T23:53:07.990Z,15.30
2017-07-14T23:55:37.675Z,15.30
2017-07-14T23:58:07.361Z,15.30
